Time;durP1;ratioP1;P1;durP2;ratioP2;P2;SDS_P1;SDS_P2;PMS_P1;PMS_P2;Temp;Humidity;BMP_temperature;BMP_pressure;BME280_temperature;BME280_humidity;BME280_pressure;Samples;Min_cycle;Max_cycle;Signal;HPM_P1;HPM_P2
2023/08/11 00:01:02;;;;;;;;;;;15.10;99.90;;;;;;5000051;28;19926;-77
2023/08/11 00:03:28;;;;;;;;;;;15.00;99.90;;;;;;5009257;28;19984;-77
2023/08/11 00:05:55;;;;;;;;;;;15.00;99.90;;;;;;5010166;28;19932;-77
2023/08/11 00:08:23;;;;;;;;;;;15.00;99.90;;;;;;5010283;28;20142;-78
2023/08/11 00:10:49;;;;;;;;;;;14.90;99.90;;;;;;5010069;28;19933;-76
2023/08/11 00:13:17;;;;;;;;;;;14.80;99.90;;;;;;5009235;28;20378;-78
2023/08/11 00:15:44;;;;;;;;;;;14.80;99.90;;;;;;5001192;28;19965;-77
2023/08/11 00:18:11;;;;;;;;;;;14.70;99.90;;;;;;5007364;28;19949;-77
2023/08/11 00:20:38;;;;;;;;;;;14.70;99.90;;;;;;5008067;28;19989;-75
2023/08/11 00:23:04;;;;;;;;;;;14.70;99.90;;;;;;5008095;28;19928;-76
2023/08/11 00:25:33;;;;;;;;;;;14.70;99.90;;;;;;5005491;28;20239;-76
2023/08/11 00:28:00;;;;;;;;;;;14.70;99.90;;;;;;5007035;28;19922;-77
2023/08/11 00:30:28;;;;;;;;;;;14.60;99.90;;;;;;4999347;28;19926;-75
2023/08/11 00:32:55;;;;;;;;;;;14.60;99.90;;;;;;5007634;28;19953;-77
2023/08/11 00:35:23;;;;;;;;;;;14.60;99.90;;;;;;5007822;28;19993;-77
2023/08/11 00:37:50;;;;;;;;;;;14.50;99.90;;;;;;5007367;28;19921;-75
2023/08/11 00:40:16;;;;;;;;;;;14.50;99.90;;;;;;5007997;28;19922;-75
2023/08/11 00:42:43;;;;;;;;;;;14.40;99.90;;;;;;5007712;28;20109;-77
2023/08/11 00:45:10;;;;;;;;;;;14.40;99.90;;;;;;5007538;28;19989;-74
2023/08/11 00:47:41;;;;;;;;;;;14.30;99.90;;;;;;4987828;28;20165;-77
2023/08/11 00:50:08;;;;;;;;;;;14.30;99.90;;;;;;4988856;28;19922;-78
2023/08/11 00:52:35;;;;;;;;;;;14.30;99.90;;;;;;5006631;28;20260;-77
2023/08/11 00:55:01;;;;;;;;;;;14.30;99.90;;;;;;5008096;28;19921;-76
2023/08/11 00:57:29;;;;;;;;;;;14.20;99.90;;;;;;5004916;28;20727;-76
2023/08/11 00:59:56;;;;;;;;;;;14.10;99.90;;;;;;5007700;28;19933;-76
2023/08/11 01:02:24;;;;;;;;;;;14.10;99.90;;;;;;5003918;28;19921;-76
2023/08/11 01:04:53;;;;;;;;;;;14.10;99.90;;;;;;5007029;28;20277;-78
2023/08/11 01:07:23;;;;;;;;;;;14.10;99.90;;;;;;5006099;28;19928;-77
2023/08/11 01:09:54;;;;;;;;;;;14.10;99.90;;;;;;5006752;28;19929;-76
2023/08/11 01:12:23;;;;;;;;;;;14.10;99.90;;;;;;5006570;28;19921;-77
2023/08/11 01:14:54;;;;;;;;;;;14.00;99.90;;;;;;5000222;28;19954;-78
2023/08/11 01:17:21;;;;;;;;;;;14.00;99.90;;;;;;5003782;28;19925;-77
2023/08/11 01:19:48;;;;;;;;;;;14.00;99.90;;;;;;5006552;28;19928;-78
2023/08/11 01:22:19;;;;;;;;;;;13.90;99.90;;;;;;5006228;28;19976;-76
2023/08/11 01:24:53;;;;;;;;;;;13.90;99.90;;;;;;5002982;28;19953;-76
2023/08/11 01:27:20;;;;;;;;;;;13.90;99.90;;;;;;5005531;28;19921;-77
2023/08/11 01:29:47;;;;;;;;;;;13.80;99.90;;;;;;5006242;28;19921;-76
2023/08/11 01:32:13;;;;;;;;;;;13.80;99.90;;;;;;4989674;28;20121;-75
2023/08/11 01:34:40;;;;;;;;;;;13.80;99.90;;;;;;4986499;28;19988;-73
2023/08/11 01:37:07;;;;;;;;;;;13.80;99.90;;;;;;5001421;28;19921;-77
2023/08/11 01:39:34;;;;;;;;;;;13.80;99.90;;;;;;5006203;28;19922;-76
2023/08/11 01:42:02;;;;;;;;;;;13.80;99.90;;;;;;5005886;28;19921;-76
2023/08/11 01:44:29;;;;;;;;;;;13.80;99.90;;;;;;5005900;28;19985;-76
2023/08/11 01:46:56;;;;;;;;;;;13.80;99.90;;;;;;4990973;28;20013;-75
2023/08/11 01:49:23;;;;;;;;;;;13.70;99.90;;;;;;4990184;28;19988;-75
2023/08/11 01:51:50;;;;;;;;;;;13.70;99.90;;;;;;5005352;28;19989;-75
2023/08/11 01:54:17;;;;;;;;;;;13.60;99.90;;;;;;5005057;28;19985;-76
2023/08/11 01:56:44;;;;;;;;;;;13.60;99.90;;;;;;5004771;28;19922;-76
2023/08/11 01:59:13;;;;;;;;;;;13.60;99.90;;;;;;5005733;28;19938;-77
2023/08/11 02:01:40;;;;;;;;;;;13.50;99.90;;;;;;5005432;28;19984;-76
2023/08/11 02:04:08;;;;;;;;;;;13.50;99.90;;;;;;5005538;28;19921;-75
2023/08/11 02:06:36;;;;;;;;;;;13.40;99.90;;;;;;5004968;28;19928;-75
2023/08/11 02:09:04;;;;;;;;;;;13.40;99.90;;;;;;5005208;28;19928;-76
2023/08/11 02:11:31;;;;;;;;;;;13.40;99.90;;;;;;5005172;28;19968;-76
2023/08/11 02:13:57;;;;;;;;;;;13.40;99.90;;;;;;5005321;28;19996;-77
2023/08/11 02:16:25;;;;;;;;;;;13.30;99.90;;;;;;4997270;28;20184;-76
2023/08/11 02:18:52;;;;;;;;;;;13.30;99.90;;;;;;5004759;28;19960;-77
2023/08/11 02:21:18;;;;;;;;;;;13.30;99.90;;;;;;5005035;28;19992;-76
2023/08/11 02:23:45;;;;;;;;;;;13.30;99.90;;;;;;5005623;28;19953;-77
2023/08/11 02:26:12;;;;;;;;;;;13.30;99.90;;;;;;5004677;28;20154;-76
2023/08/11 02:28:39;;;;;;;;;;;13.30;99.90;;;;;;5001220;28;19930;-78
2023/08/11 02:31:07;;;;;;;;;;;13.30;99.90;;;;;;5003667;28;19989;-78
2023/08/11 02:33:35;;;;;;;;;;;13.30;99.90;;;;;;5009006;28;19922;-78
2023/08/11 02:36:04;;;;;;;;;;;13.30;99.90;;;;;;5007001;28;19922;-76
2023/08/11 02:38:30;;;;;;;;;;;13.20;99.90;;;;;;5004261;28;19945;-74
2023/08/11 02:40:57;;;;;;;;;;;13.20;99.90;;;;;;5005306;28;19989;-77
2023/08/11 02:43:23;;;;;;;;;;;13.20;99.90;;;;;;5003199;28;19988;-77
2023/08/11 02:45:50;;;;;;;;;;;13.20;99.90;;;;;;4998174;28;20227;-76
2023/08/11 02:48:17;;;;;;;;;;;13.20;99.90;;;;;;5004418;28;19921;-76
2023/08/11 02:50:45;;;;;;;;;;;13.10;99.90;;;;;;5005016;28;19921;-76
2023/08/11 02:53:11;;;;;;;;;;;13.10;99.90;;;;;;5004623;28;20017;-76
2023/08/11 02:55:38;;;;;;;;;;;13.00;99.90;;;;;;5004839;28;19922;-76
2023/08/11 02:58:04;;;;;;;;;;;13.00;99.90;;;;;;5004009;28;19960;-76
2023/08/11 03:00:33;;;;;;;;;;;13.00;99.90;;;;;;4999298;28;20277;-76
2023/08/11 03:03:01;;;;;;;;;;;13.00;99.90;;;;;;4999779;28;19960;-77
2023/08/11 03:05:27;;;;;;;;;;;12.90;99.90;;;;;;5005486;28;20236;-76
2023/08/11 03:07:56;;;;;;;;;;;12.90;99.90;;;;;;5004879;28;19922;-76
2023/08/11 03:10:23;;;;;;;;;;;12.90;99.90;;;;;;5004835;28;19922;-76
2023/08/11 03:12:50;;;;;;;;;;;12.90;99.90;;;;;;5004852;28;19988;-76
2023/08/11 03:15:17;;;;;;;;;;;12.90;99.90;;;;;;4996349;28;20118;-76
2023/08/11 03:17:43;;;;;;;;;;;12.80;99.90;;;;;;5004157;28;20229;-75
2023/08/11 03:20:12;;;;;;;;;;;12.80;99.90;;;;;;5004562;28;19922;-76
2023/08/11 03:22:39;;;;;;;;;;;12.80;99.90;;;;;;5004396;28;20213;-76
2023/08/11 03:25:09;;;;;;;;;;;12.80;99.90;;;;;;5004439;28;19940;-76
2023/08/11 03:27:35;;;;;;;;;;;12.70;99.90;;;;;;5004212;28;19957;-76
2023/08/11 03:30:02;;;;;;;;;;;12.70;99.90;;;;;;4995995;28;19928;-76
2023/08/11 03:32:29;;;;;;;;;;;12.70;99.90;;;;;;5001075;28;19921;-76
2023/08/11 03:34:56;;;;;;;;;;;12.70;99.90;;;;;;5004525;28;19928;-77
2023/08/11 03:37:22;;;;;;;;;;;12.70;99.90;;;;;;5005017;28;19922;-76
2023/08/11 03:39:49;;;;;;;;;;;12.70;99.90;;;;;;5008437;28;19989;-76
2023/08/11 03:42:17;;;;;;;;;;;12.70;99.90;;;;;;5008218;28;20264;-77
2023/08/11 03:44:44;;;;;;;;;;;12.70;99.90;;;;;;4999679;28;20206;-76
2023/08/11 03:47:10;;;;;;;;;;;12.60;99.90;;;;;;5007440;28;19928;-75
2023/08/11 03:49:37;;;;;;;;;;;12.60;99.90;;;;;;5008381;28;19929;-76
2023/08/11 03:52:04;;;;;;;;;;;12.60;99.90;;;;;;5007964;28;20264;-76
2023/08/11 03:54:30;;;;;;;;;;;12.60;99.90;;;;;;5008328;28;19925;-76
2023/08/11 03:56:57;;;;;;;;;;;12.60;99.90;;;;;;5001937;28;19996;-77
2023/08/11 03:59:25;;;;;;;;;;;12.60;99.90;;;;;;5003664;28;19984;-75
2023/08/11 04:01:52;;;;;;;;;;;12.60;99.90;;;;;;5001770;28;20108;-76
2023/08/11 04:04:19;;;;;;;;;;;12.60;99.90;;;;;;5007804;28;19922;-76
2023/08/11 04:06:45;;;;;;;;;;;12.60;99.90;;;;;;5007001;28;20090;-77
2023/08/11 04:09:12;;;;;;;;;;;12.50;99.90;;;;;;5007618;28;20000;-76
2023/08/11 04:11:40;;;;;;;;;;;12.50;99.90;;;;;;5008545;28;19989;-77
2023/08/11 04:14:07;;;;;;;;;;;12.50;99.90;;;;;;5010925;28;19929;-77
2023/08/11 04:16:35;;;;;;;;;;;12.50;99.90;;;;;;4999206;28;19922;-76
2023/08/11 04:19:02;;;;;;;;;;;12.50;99.90;;;;;;5007527;28;19953;-76
2023/08/11 04:21:28;;;;;;;;;;;12.40;99.90;;;;;;5007692;28;19921;-76
2023/08/11 04:23:57;;;;;;;;;;;12.40;99.90;;;;;;5004950;28;19952;-75
2023/08/11 04:26:24;;;;;;;;;;;12.40;99.90;;;;;;5007169;28;19988;-75
2023/08/11 04:28:51;;;;;;;;;;;12.40;99.90;;;;;;5005938;28;19922;-77
2023/08/11 04:31:18;;;;;;;;;;;12.40;99.90;;;;;;4998052;28;19922;-74
2023/08/11 04:33:46;;;;;;;;;;;12.40;99.90;;;;;;4988724;28;19949;-78
2023/08/11 04:36:13;;;;;;;;;;;12.40;99.90;;;;;;4988373;28;20113;-76
2023/08/11 04:38:40;;;;;;;;;;;12.40;99.90;;;;;;4987521;28;19989;-76
2023/08/11 04:41:06;;;;;;;;;;;12.50;99.90;;;;;;4991413;28;19953;-78
2023/08/11 04:43:33;;;;;;;;;;;12.50;99.90;;;;;;4993769;28;20124;-78
2023/08/11 04:45:59;;;;;;;;;;;12.50;99.90;;;;;;4999510;28;20357;-76
2023/08/11 04:48:26;;;;;;;;;;;12.40;99.90;;;;;;5006432;28;20005;-75
2023/08/11 04:50:54;;;;;;;;;;;12.40;99.90;;;;;;5007230;28;20205;-76
2023/08/11 04:53:21;;;;;;;;;;;12.50;99.90;;;;;;5006720;28;19921;-76
2023/08/11 04:55:48;;;;;;;;;;;12.50;99.90;;;;;;5006901;28;19925;-77
2023/08/11 04:58:14;;;;;;;;;;;12.50;99.90;;;;;;5006601;28;19928;-76
2023/08/11 05:00:42;;;;;;;;;;;12.50;99.90;;;;;;5007200;28;19986;-77
2023/08/11 05:03:09;;;;;;;;;;;12.60;99.90;;;;;;5007252;28;19925;-77
2023/08/11 05:05:36;;;;;;;;;;;12.60;99.90;;;;;;5007584;28;20109;-76
2023/08/11 05:08:04;;;;;;;;;;;12.60;99.90;;;;;;5006570;28;19929;-76
2023/08/11 05:10:31;;;;;;;;;;;12.60;99.90;;;;;;5004642;28;20094;-76
2023/08/11 05:12:58;;;;;;;;;;;12.70;99.90;;;;;;5007430;28;19928;-76
2023/08/11 05:15:25;;;;;;;;;;;12.70;99.90;;;;;;5007166;28;19922;-77
2023/08/11 05:17:52;;;;;;;;;;;12.80;99.90;;;;;;5006302;28;19922;-77
2023/08/11 05:20:18;;;;;;;;;;;12.80;99.90;;;;;;5006988;28;20165;-76
2023/08/11 05:22:47;;;;;;;;;;;12.80;99.90;;;;;;5006589;28;19953;-76
2023/08/11 05:25:15;;;;;;;;;;;12.90;99.90;;;;;;5007115;28;19965;-77
2023/08/11 05:27:42;;;;;;;;;;;12.90;99.90;;;;;;5006177;28;20166;-76
2023/08/11 05:30:09;;;;;;;;;;;13.00;99.90;;;;;;5005818;28;19989;-77
2023/08/11 05:32:35;;;;;;;;;;;13.10;99.90;;;;;;4988739;28;20197;-77
2023/08/11 05:35:02;;;;;;;;;;;13.20;99.90;;;;;;4987245;28;19929;-77
2023/08/11 05:37:29;;;;;;;;;;;13.30;99.90;;;;;;4986838;28;19953;-78
2023/08/11 05:39:56;;;;;;;;;;;13.40;99.90;;;;;;4996270;28;19961;-76
2023/08/11 05:42:24;;;;;;;;;;;13.50;99.90;;;;;;4986409;28;19964;-77
2023/08/11 05:44:50;;;;;;;;;;;13.50;99.90;;;;;;5001719;28;19926;-77
2023/08/11 05:47:17;;;;;;;;;;;13.60;99.90;;;;;;5004644;28;19922;-78
2023/08/11 05:49:43;;;;;;;;;;;13.70;99.90;;;;;;5001593;28;19965;-76
2023/08/11 05:52:22;;;;;;;;;;;13.80;99.90;;;;;;5002863;28;20000;-75
2023/08/11 05:54:49;;;;;;;;;;;13.90;99.90;;;;;;5003885;28;19953;-76
2023/08/11 05:57:16;;;;;;;;;;;14.00;99.90;;;;;;5004952;28;19989;-77
2023/08/11 05:59:44;;;;;;;;;;;14.10;99.90;;;;;;5004662;28;19984;-77
2023/08/11 06:02:12;;;;;;;;;;;14.20;99.90;;;;;;5002826;28;20221;-74
2023/08/11 06:04:39;;;;;;;;;;;14.20;99.90;;;;;;5005617;28;19984;-76
2023/08/11 06:07:05;;;;;;;;;;;14.20;99.90;;;;;;5004720;28;20059;-76
2023/08/11 06:09:32;;;;;;;;;;;14.30;99.90;;;;;;5005513;28;19944;-76
2023/08/11 06:11:59;;;;;;;;;;;14.30;99.90;;;;;;5005042;28;20174;-76
2023/08/11 06:14:25;;;;;;;;;;;14.40;99.90;;;;;;5005153;28;19992;-76
2023/08/11 06:16:53;;;;;;;;;;;14.50;99.90;;;;;;5004941;28;19928;-77
2023/08/11 06:19:20;;;;;;;;;;;14.50;99.90;;;;;;4989788;28;20113;-76
2023/08/11 06:21:47;;;;;;;;;;;14.60;99.90;;;;;;4986587;28;19981;-78
2023/08/11 06:24:13;;;;;;;;;;;14.70;99.90;;;;;;4987620;28;20090;-76
2023/08/11 06:26:40;;;;;;;;;;;14.80;99.90;;;;;;4985219;28;19926;-77
2023/08/11 06:29:07;;;;;;;;;;;14.90;99.90;;;;;;4985922;28;19928;-77
2023/08/11 06:31:34;;;;;;;;;;;14.90;99.90;;;;;;4986271;28;19953;-77
2023/08/11 06:34:02;;;;;;;;;;;15.10;99.90;;;;;;4986607;28;19922;-77
2023/08/11 06:36:29;;;;;;;;;;;15.10;99.90;;;;;;4986051;28;19994;-76
2023/08/11 06:38:55;;;;;;;;;;;15.20;99.90;;;;;;4988959;28;19933;-78
2023/08/11 06:41:22;;;;;;;;;;;15.30;99.90;;;;;;5005358;28;20264;-78
2023/08/11 06:43:49;;;;;;;;;;;15.30;99.90;;;;;;5005239;28;19993;-78
2023/08/11 06:46:15;;;;;;;;;;;15.40;99.90;;;;;;5005142;28;19921;-75
2023/08/11 06:48:42;;;;;;;;;;;15.50;99.90;;;;;;5004180;28;19921;-77
2023/08/11 06:51:10;;;;;;;;;;;15.70;99.90;;;;;;5005208;28;20120;-77
2023/08/11 06:53:36;;;;;;;;;;;15.70;99.90;;;;;;5005460;28;19989;-77
2023/08/11 06:56:13;;;;;;;;;;;15.80;99.90;;;;;;5004106;28;19929;-77
2023/08/11 06:58:40;;;;;;;;;;;15.90;99.90;;;;;;5004311;28;19990;-75
2023/08/11 07:01:06;;;;;;;;;;;16.10;99.90;;;;;;5002009;28;19930;-77
2023/08/11 07:03:33;;;;;;;;;;;16.20;99.90;;;;;;5002528;28;19928;-77
2023/08/11 07:06:03;;;;;;;;;;;16.30;99.90;;;;;;5004175;28;19926;-76
2023/08/11 07:08:31;;;;;;;;;;;16.50;99.90;;;;;;5005256;28;19944;-77
2023/08/11 07:10:58;;;;;;;;;;;16.60;99.90;;;;;;5008695;28;19922;-76
2023/08/11 07:13:24;;;;;;;;;;;16.70;99.90;;;;;;5013760;28;19922;-78
2023/08/11 07:15:54;;;;;;;;;;;16.90;99.90;;;;;;5012342;28;19929;-77
2023/08/11 07:18:21;;;;;;;;;;;17.00;99.90;;;;;;5012859;28;19921;-77
2023/08/11 07:20:48;;;;;;;;;;;17.10;99.90;;;;;;5009720;28;19921;-78
2023/08/11 07:23:16;;;;;;;;;;;17.20;99.90;;;;;;4990143;28;19929;-76
2023/08/11 07:25:44;;;;;;;;;;;17.30;99.90;;;;;;4990606;28;19930;-77
2023/08/11 07:28:11;;;;;;;;;;;17.40;99.90;;;;;;4998063;28;19926;-76
2023/08/11 07:30:53;;;;;;;;;;;17.50;99.90;;;;;;4990362;28;19969;-77
2023/08/11 07:33:20;;;;;;;;;;;17.70;99.90;;;;;;4989603;28;19924;-76
2023/08/11 07:35:47;;;;;;;;;;;17.80;99.90;;;;;;4990451;28;19989;-77
2023/08/11 07:38:13;;;;;;;;;;;17.90;99.90;;;;;;4991588;28;19926;-78
2023/08/11 07:40:40;;;;;;;;;;;18.00;99.90;;;;;;4989562;28;19922;-77
2023/08/11 07:43:08;;;;;;;;;;;18.20;99.90;;;;;;4990672;28;19926;-77
2023/08/11 07:45:35;;;;;;;;;;;18.30;99.90;;;;;;4990337;28;20382;-77
2023/08/11 07:48:01;;;;;;;;;;;18.40;99.90;;;;;;4988662;28;19922;-77
2023/08/11 07:50:28;;;;;;;;;;;18.50;99.90;;;;;;4988826;28;20235;-78
2023/08/11 07:52:57;;;;;;;;;;;18.70;99.90;;;;;;4986829;28;19977;-78
2023/08/11 07:55:23;;;;;;;;;;;18.70;99.90;;;;;;4989266;28;19957;-76
2023/08/11 07:57:52;;;;;;;;;;;18.80;99.90;;;;;;4988202;28;19984;-78
2023/08/11 08:00:24;;;;;;;;;;;19.00;99.90;;;;;;4989067;28;19985;-79
2023/08/11 08:02:59;;;;;;;;;;;19.10;99.90;;;;;;4986657;28;19930;-79
2023/08/11 08:05:26;;;;;;;;;;;19.20;99.90;;;;;;5006374;28;19964;-76
2023/08/11 08:07:54;;;;;;;;;;;19.30;99.90;;;;;;5006206;28;19929;-77
2023/08/11 08:10:21;;;;;;;;;;;19.40;99.90;;;;;;4998895;28;19961;-77
2023/08/11 08:12:47;;;;;;;;;;;19.50;99.90;;;;;;4988873;28;20375;-78
2023/08/11 08:15:16;;;;;;;;;;;19.50;99.90;;;;;;4988822;28;19985;-78
2023/08/11 08:17:44;;;;;;;;;;;19.60;99.90;;;;;;4988116;28;19969;-78
2023/08/11 08:20:13;;;;;;;;;;;19.60;99.90;;;;;;4988636;28;20237;-79
2023/08/11 08:22:40;;;;;;;;;;;19.70;99.90;;;;;;4987981;28;19945;-77
2023/08/11 08:25:07;;;;;;;;;;;19.80;99.90;;;;;;4988317;28;19968;-79
2023/08/11 08:27:33;;;;;;;;;;;19.90;99.90;;;;;;4989935;28;19922;-77
2023/08/11 08:30:00;;;;;;;;;;;20.00;99.90;;;;;;5006787;28;19921;-76
2023/08/11 08:32:27;;;;;;;;;;;20.10;99.90;;;;;;5006833;28;19985;-77
2023/08/11 08:34:55;;;;;;;;;;;20.30;99.90;;;;;;5006750;28;19922;-77
2023/08/11 08:37:24;;;;;;;;;;;20.40;99.90;;;;;;5006347;28;19921;-76
2023/08/11 08:39:51;;;;;;;;;;;20.50;99.90;;;;;;5006655;28;19922;-76
2023/08/11 08:42:21;;;;;;;;;;;20.60;99.90;;;;;;5005789;28;20916;-76
2023/08/11 08:44:49;;;;;;;;;;;20.70;99.90;;;;;;5006348;28;19922;-75
2023/08/11 08:47:16;;;;;;;;;;;20.80;99.90;;;;;;5005906;28;19925;-76
2023/08/11 08:49:44;;;;;;;;;;;20.90;99.90;;;;;;5006215;28;19932;-76
2023/08/11 08:52:12;;;;;;;;;;;21.00;99.90;;;;;;5006581;28;19945;-76
2023/08/11 08:54:40;;;;;;;;;;;21.10;99.90;;;;;;5004840;28;19977;-76
2023/08/11 08:57:11;;;;;;;;;;;21.10;99.90;;;;;;5005771;28;19944;-75
2023/08/11 08:59:38;;;;;;;;;;;21.20;99.90;;;;;;5006151;28;19928;-76
2023/08/11 09:02:07;;;;;;;;;;;21.40;99.90;;;;;;5004624;28;19984;-74
2023/08/11 09:04:34;;;;;;;;;;;21.50;99.90;;;;;;5005522;28;19970;-76
2023/08/11 09:07:01;;;;;;;;;;;21.60;99.90;;;;;;5005516;28;19964;-76
2023/08/11 09:09:29;;;;;;;;;;;21.70;99.90;;;;;;5005976;28;19957;-76
2023/08/11 09:11:56;;;;;;;;;;;21.70;99.90;;;;;;5006412;28;19984;-76
2023/08/11 09:14:23;;;;;;;;;;;21.90;99.90;;;;;;5006221;28;19928;-76
2023/08/11 09:16:50;;;;;;;;;;;22.00;99.90;;;;;;5005156;28;19972;-75
2023/08/11 09:19:17;;;;;;;;;;;22.00;99.90;;;;;;5005851;28;19989;-76
2023/08/11 09:21:44;;;;;;;;;;;22.00;99.90;;;;;;5005549;28;19921;-76
2023/08/11 09:24:11;;;;;;;;;;;22.00;99.90;;;;;;5005848;28;20146;-76
2023/08/11 09:26:41;;;;;;;;;;;22.10;99.90;;;;;;5005111;28;20108;-75
2023/08/11 09:29:08;;;;;;;;;;;22.20;99.90;;;;;;5005315;28;20001;-76
2023/08/11 09:31:35;;;;;;;;;;;22.30;99.90;;;;;;5005628;28;19922;-76
2023/08/11 09:34:11;;;;;;;;;;;22.40;99.90;;;;;;5005038;28;20121;-76
2023/08/11 09:36:37;;;;;;;;;;;22.50;99.90;;;;;;5004297;28;19969;-74
2023/08/11 09:39:06;;;;;;;;;;;22.50;99.90;;;;;;5005350;28;20179;-74
2023/08/11 09:41:37;;;;;;;;;;;22.70;99.90;;;;;;5005419;28;19957;-76
2023/08/11 09:44:06;;;;;;;;;;;22.80;99.90;;;;;;5005260;28;19928;-76
2023/08/11 09:46:35;;;;;;;;;;;22.80;99.90;;;;;;5003921;28;20116;-76
2023/08/11 09:49:02;;;;;;;;;;;22.90;99.90;;;;;;5005139;28;19964;-75
2023/08/11 09:51:29;;;;;;;;;;;23.00;99.90;;;;;;5005231;28;19922;-75
2023/08/11 09:54:00;;;;;;;;;;;23.10;99.90;;;;;;5002239;28;19960;-76
2023/08/11 09:56:36;;;;;;;;;;;23.20;99.90;;;;;;5121369;27;19935;-77
2023/08/11 09:59:03;;;;;;;;;;;23.30;99.90;;;;;;5122635;28;19924;-75
2023/08/11 10:01:31;;;;;;;;;;;23.40;99.90;;;;;;5124205;28;19920;-77
2023/08/11 10:04:01;;;;;;;;;;;23.50;99.90;;;;;;5124582;28;19979;-76
2023/08/11 10:06:28;;;;;;;;;;;23.50;99.90;;;;;;5126465;28;19920;-77
2023/08/11 10:08:56;;;;;;;;;;;23.60;99.90;;;;;;5125800;28;19928;-77
2023/08/11 10:11:25;;;;;;;;;;;23.60;99.90;;;;;;5126050;28;19987;-75
2023/08/11 10:13:53;;;;;;;;;;;23.70;99.90;;;;;;5122863;28;19942;-74
2023/08/11 10:16:20;;;;;;;;;;;23.80;99.90;;;;;;5104775;28;19960;-76
2023/08/11 10:18:47;;;;;;;;;;;23.90;99.90;;;;;;5105514;28;19921;-77
2023/08/11 10:21:14;;;;;;;;;;;24.00;99.90;;;;;;5104735;28;19920;-75
2023/08/11 10:23:41;;;;;;;;;;;24.20;99.90;;;;;;5105305;28;19987;-76
2023/08/11 10:26:08;;;;;;;;;;;24.30;99.90;;;;;;5108578;28;19931;-75
2023/08/11 10:28:34;;;;;;;;;;;24.40;99.90;;;;;;5106462;28;19920;-76
2023/08/11 10:31:04;;;;;;;;;;;24.50;99.90;;;;;;5119678;28;19947;-77
2023/08/11 10:33:31;;;;;;;;;;;24.60;99.90;;;;;;5126756;28;19926;-77
2023/08/11 10:36:00;;;;;;;;;;;24.60;99.90;;;;;;5126889;28;19956;-76
2023/08/11 10:38:27;;;;;;;;;;;24.70;99.90;;;;;;5125424;28;19983;-75
2023/08/11 10:41:00;;;;;;;;;;;24.80;99.90;;;;;;5126883;28;19927;-75
2023/08/11 10:43:30;;;;;;;;;;;24.90;99.90;;;;;;5126186;28;19987;-77
2023/08/11 10:45:56;;;;;;;;;;;25.00;99.90;;;;;;5126329;28;19920;-76
2023/08/11 10:48:24;;;;;;;;;;;25.10;99.90;;;;;;5127036;28;19979;-75
2023/08/11 10:50:51;;;;;;;;;;;25.10;99.90;;;;;;5112376;28;19980;-75
2023/08/11 10:53:19;;;;;;;;;;;25.20;99.90;;;;;;5104605;28;19980;-76
2023/08/11 11:01:49;;;;;;;;;;;25.70;99.90;;;;;;5047795;28;19916;-72
2023/08/11 11:19:59;;;;;;;;;;;26.30;99.90;;;;;;5026355;28;20223;-73
2023/08/11 11:22:27;;;;;;;;;;;26.50;99.90;;;;;;5026621;28;19988;-74
2023/08/11 11:24:58;;;;;;;;;;;26.60;99.90;;;;;;5026250;28;19960;-73
2023/08/11 11:27:25;;;;;;;;;;;26.70;99.90;;;;;;5025798;28;19960;-71
2023/08/11 11:29:57;;;;;;;;;;;26.70;99.90;;;;;;5028488;28;20161;-72
2023/08/11 11:32:24;;;;;;;;;;;26.90;99.90;;;;;;5013165;28;19944;-72
2023/08/11 11:34:50;;;;;;;;;;;27.00;99.90;;;;;;5006062;28;19922;-71
2023/08/11 11:37:18;;;;;;;;;;;27.10;99.90;;;;;;5005568;28;19922;-70
2023/08/11 11:42:48;;;;;;;;;;;27.30;99.90;;;;;;5002412;28;19917;-71
2023/08/11 11:45:15;;;;;;;;;;;27.50;99.90;;;;;;5005766;28;19928;-70
2023/08/11 11:50:35;;;;;;;;;;;27.70;99.90;;;;;;5023710;28;19924;-71
2023/08/11 11:53:02;;;;;;;;;;;27.80;99.90;;;;;;5024917;28;19940;-70
2023/08/11 11:55:28;;;;;;;;;;;27.80;99.90;;;;;;5017379;28;19928;-72
2023/08/11 11:57:57;;;;;;;;;;;27.90;99.90;;;;;;5004672;28;19921;-73
2023/08/11 12:00:25;;;;;;;;;;;28.00;99.90;;;;;;5005560;28;20001;-72
2023/08/11 12:02:53;;;;;;;;;;;28.20;99.90;;;;;;5005516;28;19929;-72
2023/08/11 12:05:21;;;;;;;;;;;28.30;99.90;;;;;;5005322;28;19997;-76
2023/08/11 12:07:47;;;;;;;;;;;28.40;99.90;;;;;;5004757;28;19922;-73
2023/08/11 12:10:15;;;;;;;;;;;28.50;99.90;;;;;;5005113;28;19928;-73
2023/08/11 12:12:42;;;;;;;;;;;28.50;99.90;;;;;;5004990;28;20259;-72
2023/08/11 12:15:10;;;;;;;;;;;28.60;99.90;;;;;;5004819;28;19921;-70
2023/08/11 12:17:37;;;;;;;;;;;28.80;99.90;;;;;;4997183;28;19929;-74
2023/08/11 12:20:04;;;;;;;;;;;28.90;99.90;;;;;;5002952;28;19961;-71
2023/08/11 12:22:31;;;;;;;;;;;28.90;99.90;;;;;;4991671;28;19921;-70
2023/08/11 12:24:57;;;;;;;;;;;28.90;99.90;;;;;;5009107;28;19921;-71
2023/08/11 12:27:25;;;;;;;;;;;29.00;99.90;;;;;;5014711;28;19960;-70
2023/08/11 12:29:51;;;;;;;;;;;29.00;99.90;;;;;;5004634;28;19922;-70
2023/08/11 12:32:27;;;;;;;;;;;29.20;99.90;;;;;;5003921;28;19922;-70
2023/08/11 12:38:01;;;;;;;;;;;29.40;99.90;;;;;;4984132;28;19921;-71
2023/08/11 12:40:30;;;;;;;;;;;29.50;99.90;;;;;;5004971;28;19921;-70
2023/08/11 12:42:57;;;;;;;;;;;29.60;99.90;;;;;;5003710;28;20109;-71
2023/08/11 12:45:24;;;;;;;;;;;29.60;99.90;;;;;;5005207;28;19929;-71
2023/08/11 12:47:52;;;;;;;;;;;29.70;99.90;;;;;;5004250;28;20090;-71
2023/08/11 12:50:20;;;;;;;;;;;29.80;99.90;;;;;;5036845;28;19994;-70
2023/08/11 12:52:46;;;;;;;;;;;29.80;99.90;;;;;;5005127;28;20228;-70
2023/08/11 12:55:13;;;;;;;;;;;30.00;99.90;;;;;;5004629;28;19922;-71
2023/08/11 12:57:40;;;;;;;;;;;30.10;99.90;;;;;;5003169;28;19992;-70
2023/08/11 13:00:10;;;;;;;;;;;30.20;99.90;;;;;;5004213;28;19922;-71
2023/08/11 13:02:36;;;;;;;;;;;30.30;99.90;;;;;;5004799;28;20265;-71
2023/08/11 13:05:05;;;;;;;;;;;30.40;99.90;;;;;;5004681;28;20184;-71
2023/08/11 13:07:31;;;;;;;;;;;30.50;99.90;;;;;;5006585;28;20004;-69
2023/08/11 13:09:58;;;;;;;;;;;30.60;99.90;;;;;;5024305;28;19988;-69
2023/08/11 13:12:25;;;;;;;;;;;30.80;99.90;;;;;;5004935;28;20227;-70
2023/08/11 13:14:52;;;;;;;;;;;31.00;99.90;;;;;;5004464;28;19936;-71
2023/08/11 13:17:21;;;;;;;;;;;31.00;99.90;;;;;;5003565;28;19922;-70
2023/08/11 13:19:47;;;;;;;;;;;31.10;99.90;;;;;;5004331;28;19922;-71
2023/08/11 13:22:15;;;;;;;;;;;31.20;99.90;;;;;;4997196;28;19981;-70
2023/08/11 13:24:42;;;;;;;;;;;31.30;99.90;;;;;;5004201;28;19922;-70
2023/08/11 13:27:10;;;;;;;;;;;31.30;99.90;;;;;;5003908;28;19922;-69
2023/08/11 13:29:36;;;;;;;;;;;31.40;99.90;;;;;;5004198;28;19921;-71
2023/08/11 13:32:03;;;;;;;;;;;31.60;99.90;;;;;;5004281;28;19993;-71
2023/08/11 13:34:30;;;;;;;;;;;31.70;99.90;;;;;;5004500;28;19989;-70
2023/08/11 13:36:57;;;;;;;;;;;31.80;99.90;;;;;;5003587;28;19992;-70
2023/08/11 13:39:25;;;;;;;;;;;31.90;99.90;;;;;;5004131;28;19928;-69
2023/08/11 13:41:51;;;;;;;;;;;31.90;99.90;;;;;;5004376;28;19922;-71
2023/08/11 13:44:20;;;;;;;;;;;31.90;99.90;;;;;;5004332;28;19992;-71
2023/08/11 13:46:46;;;;;;;;;;;32.00;99.90;;;;;;5003658;28;19922;-71
2023/08/11 13:49:13;;;;;;;;;;;32.10;99.90;;;;;;5003953;28;19928;-70
2023/08/11 13:51:40;;;;;;;;;;;32.00;99.90;;;;;;5003676;28;19921;-71
2023/08/11 13:54:06;;;;;;;;;;;32.00;99.90;;;;;;5004313;28;19944;-70
2023/08/11 13:56:34;;;;;;;;;;;32.00;99.90;;;;;;5003170;28;20252;-70
2023/08/11 13:59:01;;;;;;;;;;;32.00;99.90;;;;;;5003614;28;20059;-72
2023/08/11 14:01:28;;;;;;;;;;;32.00;99.90;;;;;;5004254;28;19922;-69
2023/08/11 14:03:55;;;;;;;;;;;32.00;99.90;;;;;;5004247;28;19944;-71
2023/08/11 14:06:21;;;;;;;;;;;32.00;99.90;;;;;;5007310;28;19927;-70
2023/08/11 14:08:48;;;;;;;;;;;31.90;99.90;;;;;;5010131;28;19960;-70
2023/08/11 14:11:15;;;;;;;;;;;32.00;99.90;;;;;;5003887;28;19922;-71
2023/08/11 14:13:43;;;;;;;;;;;32.00;99.90;;;;;;5003730;28;19922;-70
2023/08/11 14:16:10;;;;;;;;;;;32.10;99.90;;;;;;5003681;28;19928;-71
2023/08/11 14:18:39;;;;;;;;;;;32.10;99.90;;;;;;5003179;28;19985;-70
2023/08/11 14:21:05;;;;;;;;;;;32.10;99.90;;;;;;5001312;28;19989;-70
2023/08/11 14:23:32;;;;;;;;;;;32.20;99.90;;;;;;5004000;28;19968;-70
2023/08/11 14:25:59;;;;;;;;;;;32.30;99.90;;;;;;5003766;28;19928;-71
2023/08/11 14:28:26;;;;;;;;;;;32.50;99.90;;;;;;4983712;28;19985;-72
2023/08/11 14:30:54;;;;;;;;;;;32.50;99.90;;;;;;4984568;28;19946;-71
2023/08/11 14:33:21;;;;;;;;;;;32.60;99.70;;;;;;5002081;28;19929;-70
2023/08/11 14:35:47;;;;;;;;;;;32.80;99.90;;;;;;5003671;28;19922;-71
2023/08/11 14:38:14;;;;;;;;;;;32.90;99.90;;;;;;5003088;28;20116;-71
2023/08/11 14:40:40;;;;;;;;;;;32.90;99.90;;;;;;5003916;28;19921;-70
2023/08/11 14:43:07;;;;;;;;;;;33.10;99.90;;;;;;5006772;28;19989;-70
2023/08/11 14:45:34;;;;;;;;;;;33.00;98.90;;;;;;5007571;28;19922;-70
2023/08/11 14:48:01;;;;;;;;;;;32.90;98.80;;;;;;5006357;28;20235;-71